sensor_id;sensor_type;location;lat;lon;timestamp;temperature;humidity
21778;DHT22;11050;52.222;20.916;2023-04-24T00:00:11;11.90;74.80
21778;DHT22;11050;52.222;20.916;2023-04-24T00:02:44;11.90;75.00
21778;DHT22;11050;52.222;20.916;2023-04-24T00:05:14;11.90;75.80
21778;DHT22;11050;52.222;20.916;2023-04-24T00:07:44;11.90;75.70
21778;DHT22;11050;52.222;20.916;2023-04-24T00:10:11;11.90;76.00
21778;DHT22;11050;52.222;20.916;2023-04-24T00:12:37;11.80;76.10
21778;DHT22;11050;52.222;20.916;2023-04-24T00:15:04;11.80;76.40
21778;DHT22;11050;52.222;20.916;2023-04-24T00:17:31;11.70;76.50
21778;DHT22;11050;52.222;20.916;2023-04-24T00:19:57;11.70;76.90
21778;DHT22;11050;52.222;20.916;2023-04-24T00:22:27;11.70;77.20
21778;DHT22;11050;52.222;20.916;2023-04-24T00:24:54;11.70;77.50
21778;DHT22;11050;52.222;20.916;2023-04-24T00:27:20;11.60;77.70
21778;DHT22;11050;52.222;20.916;2023-04-24T00:29:46;11.50;78.00
21778;DHT22;11050;52.222;20.916;2023-04-24T00:32:12;11.50;78.30
21778;DHT22;11050;52.222;20.916;2023-04-24T00:34:39;11.50;78.50
21778;DHT22;11050;52.222;20.916;2023-04-24T00:37:05;11.40;79.10
21778;DHT22;11050;52.222;20.916;2023-04-24T00:39:31;11.50;79.60
21778;DHT22;11050;52.222;20.916;2023-04-24T00:41:57;11.40;80.40
21778;DHT22;11050;52.222;20.916;2023-04-24T00:44:25;11.50;80.20
21778;DHT22;11050;52.222;20.916;2023-04-24T00:46:50;11.40;80.20
21778;DHT22;11050;52.222;20.916;2023-04-24T00:49:23;11.40;80.20
21778;DHT22;11050;52.222;20.916;2023-04-24T00:51:49;11.40;80.70
21778;DHT22;11050;52.222;20.916;2023-04-24T00:54:17;11.40;80.80
21778;DHT22;11050;52.222;20.916;2023-04-24T00:56:44;11.40;81.00
21778;DHT22;11050;52.222;20.916;2023-04-24T00:59:12;11.40;81.10
21778;DHT22;11050;52.222;20.916;2023-04-24T01:01:38;11.30;81.30
21778;DHT22;11050;52.222;20.916;2023-04-24T01:04:09;11.30;81.20
21778;DHT22;11050;52.222;20.916;2023-04-24T01:06:38;11.40;81.40
21778;DHT22;11050;52.222;20.916;2023-04-24T01:09:05;11.30;81.50
21778;DHT22;11050;52.222;20.916;2023-04-24T01:11:33;11.30;81.50
21778;DHT22;11050;52.222;20.916;2023-04-24T01:13:59;11.30;81.50
21778;DHT22;11050;52.222;20.916;2023-04-24T01:16:26;11.30;81.60
21778;DHT22;11050;52.222;20.916;2023-04-24T01:18:52;11.20;81.80
21778;DHT22;11050;52.222;20.916;2023-04-24T01:21:18;11.20;82.10
21778;DHT22;11050;52.222;20.916;2023-04-24T01:23:46;11.20;82.50
21778;DHT22;11050;52.222;20.916;2023-04-24T01:26:14;11.20;82.80
21778;DHT22;11050;52.222;20.916;2023-04-24T01:28:41;11.20;83.30
21778;DHT22;11050;52.222;20.916;2023-04-24T01:31:07;11.10;83.40
21778;DHT22;11050;52.222;20.916;2023-04-24T01:33:33;11.10;83.70
21778;DHT22;11050;52.222;20.916;2023-04-24T01:35:59;11.10;84.00
21778;DHT22;11050;52.222;20.916;2023-04-24T01:38:25;11.10;84.10
21778;DHT22;11050;52.222;20.916;2023-04-24T01:40:51;11.10;84.30
21778;DHT22;11050;52.222;20.916;2023-04-24T01:43:18;11.10;84.50
21778;DHT22;11050;52.222;20.916;2023-04-24T01:45:44;11.10;84.70
21778;DHT22;11050;52.222;20.916;2023-04-24T01:48:11;11.10;84.70
21778;DHT22;11050;52.222;20.916;2023-04-24T01:50:38;11.00;84.90
21778;DHT22;11050;52.222;20.916;2023-04-24T01:53:03;11.00;85.20
21778;DHT22;11050;52.222;20.916;2023-04-24T01:55:30;11.00;85.40
21778;DHT22;11050;52.222;20.916;2023-04-24T01:57:56;11.00;85.80
21778;DHT22;11050;52.222;20.916;2023-04-24T02:00:22;11.00;86.10
21778;DHT22;11050;52.222;20.916;2023-04-24T02:02:49;10.90;86.30
21778;DHT22;11050;52.222;20.916;2023-04-24T02:05:15;10.90;86.70
21778;DHT22;11050;52.222;20.916;2023-04-24T02:07:41;10.80;87.20
21778;DHT22;11050;52.222;20.916;2023-04-24T02:10:07;10.80;87.50
21778;DHT22;11050;52.222;20.916;2023-04-24T02:12:33;10.80;87.90
21778;DHT22;11050;52.222;20.916;2023-04-24T02:14:59;10.80;88.20
21778;DHT22;11050;52.222;20.916;2023-04-24T02:17:25;10.80;88.20
21778;DHT22;11050;52.222;20.916;2023-04-24T02:19:51;10.80;88.40
21778;DHT22;11050;52.222;20.916;2023-04-24T02:22:17;10.80;88.50
21778;DHT22;11050;52.222;20.916;2023-04-24T02:24:42;10.70;88.60
21778;DHT22;11050;52.222;20.916;2023-04-24T02:27:08;10.70;88.90
21778;DHT22;11050;52.222;20.916;2023-04-24T02:29:34;10.70;89.20
21778;DHT22;11050;52.222;20.916;2023-04-24T02:32:00;10.60;89.60
21778;DHT22;11050;52.222;20.916;2023-04-24T02:34:25;10.60;90.00
21778;DHT22;11050;52.222;20.916;2023-04-24T02:36:51;10.60;90.40
21778;DHT22;11050;52.222;20.916;2023-04-24T02:39:19;10.60;90.20
21778;DHT22;11050;52.222;20.916;2023-04-24T02:41:45;10.60;90.40
21778;DHT22;11050;52.222;20.916;2023-04-24T02:44:11;10.50;90.60
21778;DHT22;11050;52.222;20.916;2023-04-24T02:46:37;10.60;90.80
21778;DHT22;11050;52.222;20.916;2023-04-24T02:49:03;10.50;91.00
21778;DHT22;11050;52.222;20.916;2023-04-24T02:51:29;10.50;91.20
21778;DHT22;11050;52.222;20.916;2023-04-24T02:53:55;10.50;91.40
21778;DHT22;11050;52.222;20.916;2023-04-24T02:56:21;10.50;91.70
21778;DHT22;11050;52.222;20.916;2023-04-24T02:58:47;10.50;91.90
21778;DHT22;11050;52.222;20.916;2023-04-24T03:01:12;10.50;92.20
21778;DHT22;11050;52.222;20.916;2023-04-24T03:03:39;10.50;92.30
21778;DHT22;11050;52.222;20.916;2023-04-24T03:06:05;10.50;92.50
21778;DHT22;11050;52.222;20.916;2023-04-24T03:08:32;10.60;92.60
21778;DHT22;11050;52.222;20.916;2023-04-24T03:10:58;10.60;92.70
21778;DHT22;11050;52.222;20.916;2023-04-24T03:13:23;10.60;92.80
21778;DHT22;11050;52.222;20.916;2023-04-24T03:15:49;10.60;92.90
21778;DHT22;11050;52.222;20.916;2023-04-24T03:18:15;10.60;93.40
21778;DHT22;11050;52.222;20.916;2023-04-24T03:20:41;10.70;93.00
21778;DHT22;11050;52.222;20.916;2023-04-24T03:23:07;10.60;93.10
21778;DHT22;11050;52.222;20.916;2023-04-24T03:25:32;10.70;93.10
21778;DHT22;11050;52.222;20.916;2023-04-24T03:27:58;10.70;93.10
21778;DHT22;11050;52.222;20.916;2023-04-24T03:30:24;10.70;93.20
21778;DHT22;11050;52.222;20.916;2023-04-24T03:32:50;10.80;93.10
21778;DHT22;11050;52.222;20.916;2023-04-24T03:35:15;10.80;93.10
21778;DHT22;11050;52.222;20.916;2023-04-24T03:37:41;10.80;93.10
21778;DHT22;11050;52.222;20.916;2023-04-24T03:40:07;10.90;93.10
21778;DHT22;11050;52.222;20.916;2023-04-24T03:42:33;11.00;93.10
21778;DHT22;11050;52.222;20.916;2023-04-24T03:44:59;11.00;92.80
21778;DHT22;11050;52.222;20.916;2023-04-24T03:47:25;11.10;92.70
21778;DHT22;11050;52.222;20.916;2023-04-24T03:49:51;11.10;92.50
21778;DHT22;11050;52.222;20.916;2023-04-24T03:52:17;11.20;92.40
21778;DHT22;11050;52.222;20.916;2023-04-24T03:54:43;11.20;92.30
21778;DHT22;11050;52.222;20.916;2023-04-24T03:57:09;11.30;92.10
21778;DHT22;11050;52.222;20.916;2023-04-24T03:59:34;11.30;92.00
21778;DHT22;11050;52.222;20.916;2023-04-24T04:02:00;11.30;92.00
21778;DHT22;11050;52.222;20.916;2023-04-24T04:04:26;11.30;91.80
21778;DHT22;11050;52.222;20.916;2023-04-24T04:06:52;11.40;91.70
21778;DHT22;11050;52.222;20.916;2023-04-24T04:09:18;11.40;91.40
21778;DHT22;11050;52.222;20.916;2023-04-24T04:11:44;11.50;91.30
21778;DHT22;11050;52.222;20.916;2023-04-24T04:14:10;11.50;91.30
21778;DHT22;11050;52.222;20.916;2023-04-24T04:16:36;11.50;91.00
21778;DHT22;11050;52.222;20.916;2023-04-24T04:19:02;11.50;90.90
21778;DHT22;11050;52.222;20.916;2023-04-24T04:21:28;11.60;90.80
21778;DHT22;11050;52.222;20.916;2023-04-24T04:23:56;11.60;90.70
21778;DHT22;11050;52.222;20.916;2023-04-24T04:26:22;11.60;91.00
21778;DHT22;11050;52.222;20.916;2023-04-24T04:28:51;11.70;90.70
21778;DHT22;11050;52.222;20.916;2023-04-24T04:31:18;11.70;90.60
21778;DHT22;11050;52.222;20.916;2023-04-24T04:33:45;11.70;90.50
21778;DHT22;11050;52.222;20.916;2023-04-24T04:36:11;11.70;90.70
21778;DHT22;11050;52.222;20.916;2023-04-24T04:38:37;11.80;90.70
21778;DHT22;11050;52.222;20.916;2023-04-24T04:41:03;11.80;90.70
21778;DHT22;11050;52.222;20.916;2023-04-24T04:43:29;11.80;90.80
21778;DHT22;11050;52.222;20.916;2023-04-24T04:45:57;11.90;90.80
21778;DHT22;11050;52.222;20.916;2023-04-24T04:48:23;12.00;90.70
21778;DHT22;11050;52.222;20.916;2023-04-24T04:50:49;12.10;90.60
21778;DHT22;11050;52.222;20.916;2023-04-24T04:53:15;12.20;90.60
21778;DHT22;11050;52.222;20.916;2023-04-24T04:55:41;12.30;90.40
21778;DHT22;11050;52.222;20.916;2023-04-24T04:58:07;12.40;90.40
21778;DHT22;11050;52.222;20.916;2023-04-24T05:00:33;12.50;90.10
21778;DHT22;11050;52.222;20.916;2023-04-24T05:03:01;12.70;89.90
21778;DHT22;11050;52.222;20.916;2023-04-24T05:05:28;12.80;89.20
21778;DHT22;11050;52.222;20.916;2023-04-24T05:07:54;12.90;89.00
21778;DHT22;11050;52.222;20.916;2023-04-24T05:10:20;13.00;88.20
21778;DHT22;11050;52.222;20.916;2023-04-24T05:12:46;13.10;88.20
21778;DHT22;11050;52.222;20.916;2023-04-24T05:15:12;13.20;87.70
21778;DHT22;11050;52.222;20.916;2023-04-24T05:17:37;13.30;87.60
21778;DHT22;11050;52.222;20.916;2023-04-24T05:20:05;13.40;86.70
21778;DHT22;11050;52.222;20.916;2023-04-24T05:22:32;13.50;86.50
21778;DHT22;11050;52.222;20.916;2023-04-24T05:24:58;13.70;85.90
21778;DHT22;11050;52.222;20.916;2023-04-24T05:27:24;13.70;85.20
21778;DHT22;11050;52.222;20.916;2023-04-24T05:29:50;13.80;84.60
21778;DHT22;11050;52.222;20.916;2023-04-24T05:32:16;14.00;84.80
21778;DHT22;11050;52.222;20.916;2023-04-24T05:34:42;14.10;84.70
21778;DHT22;11050;52.222;20.916;2023-04-24T05:37:08;14.20;84.40
21778;DHT22;11050;52.222;20.916;2023-04-24T05:39:35;14.30;83.50
21778;DHT22;11050;52.222;20.916;2023-04-24T05:42:02;14.40;82.50
21778;DHT22;11050;52.222;20.916;2023-04-24T05:44:30;14.50;82.60
21778;DHT22;11050;52.222;20.916;2023-04-24T05:46:56;14.60;82.30
21778;DHT22;11050;52.222;20.916;2023-04-24T05:49:22;14.70;82.00
21778;DHT22;11050;52.222;20.916;2023-04-24T05:51:48;14.70;81.80
21778;DHT22;11050;52.222;20.916;2023-04-24T05:54:14;14.70;81.40
21778;DHT22;11050;52.222;20.916;2023-04-24T05:56:40;14.70;81.30
21778;DHT22;11050;52.222;20.916;2023-04-24T05:59:06;14.70;79.90
21778;DHT22;11050;52.222;20.916;2023-04-24T06:01:33;14.70;80.50
21778;DHT22;11050;52.222;20.916;2023-04-24T06:03:58;14.70;79.90
21778;DHT22;11050;52.222;20.916;2023-04-24T06:06:24;14.70;80.20
21778;DHT22;11050;52.222;20.916;2023-04-24T06:08:51;14.80;80.00
21778;DHT22;11050;52.222;20.916;2023-04-24T06:11:17;14.80;79.60
21778;DHT22;11050;52.222;20.916;2023-04-24T06:13:43;14.90;79.50
21778;DHT22;11050;52.222;20.916;2023-04-24T06:16:08;15.10;79.40
21778;DHT22;11050;52.222;20.916;2023-04-24T06:18:34;15.20;78.60
21778;DHT22;11050;52.222;20.916;2023-04-24T06:21:00;15.40;77.20
21778;DHT22;11050;52.222;20.916;2023-04-24T06:23:26;15.50;76.90
21778;DHT22;11050;52.222;20.916;2023-04-24T06:25:52;15.70;76.70
21778;DHT22;11050;52.222;20.916;2023-04-24T06:28:18;16.00;76.60
21778;DHT22;11050;52.222;20.916;2023-04-24T06:30:44;16.20;76.00
21778;DHT22;11050;52.222;20.916;2023-04-24T06:33:09;16.40;75.50
21778;DHT22;11050;52.222;20.916;2023-04-24T06:35:36;16.60;74.40
21778;DHT22;11050;52.222;20.916;2023-04-24T06:38:03;16.80;72.90
21778;DHT22;11050;52.222;20.916;2023-04-24T06:40:29;16.90;71.80
21778;DHT22;11050;52.222;20.916;2023-04-24T06:42:55;17.00;71.80
21778;DHT22;11050;52.222;20.916;2023-04-24T06:45:23;17.20;71.50
21778;DHT22;11050;52.222;20.916;2023-04-24T06:47:48;17.30;70.40
21778;DHT22;11050;52.222;20.916;2023-04-24T06:50:14;17.40;70.20
21778;DHT22;11050;52.222;20.916;2023-04-24T06:52:40;17.60;69.70
21778;DHT22;11050;52.222;20.916;2023-04-24T06:55:07;17.60;68.80
21778;DHT22;11050;52.222;20.916;2023-04-24T06:57:33;17.70;68.90
21778;DHT22;11050;52.222;20.916;2023-04-24T06:59:58;17.80;69.10
21778;DHT22;11050;52.222;20.916;2023-04-24T07:02:25;17.90;68.20
21778;DHT22;11050;52.222;20.916;2023-04-24T07:04:50;18.10;67.70
21778;DHT22;11050;52.222;20.916;2023-04-24T07:07:16;18.20;66.00
21778;DHT22;11050;52.222;20.916;2023-04-24T07:09:42;18.40;66.20
21778;DHT22;11050;52.222;20.916;2023-04-24T07:12:09;18.50;64.90
21778;DHT22;11050;52.222;20.916;2023-04-24T07:14:39;18.60;64.40
21778;DHT22;11050;52.222;20.916;2023-04-24T07:17:05;18.70;64.10
21778;DHT22;11050;52.222;20.916;2023-04-24T07:19:33;18.80;64.40
21778;DHT22;11050;52.222;20.916;2023-04-24T07:22:00;18.90;64.60
21778;DHT22;11050;52.222;20.916;2023-04-24T07:24:26;18.90;64.30
21778;DHT22;11050;52.222;20.916;2023-04-24T07:26:53;19.00;64.20
21778;DHT22;11050;52.222;20.916;2023-04-24T07:29:19;19.10;63.00
21778;DHT22;11050;52.222;20.916;2023-04-24T07:31:46;19.00;62.50
21778;DHT22;11050;52.222;20.916;2023-04-24T07:34:12;19.10;62.60
21778;DHT22;11050;52.222;20.916;2023-04-24T07:36:38;19.10;62.50
21778;DHT22;11050;52.222;20.916;2023-04-24T07:39:04;19.20;61.70
21778;DHT22;11050;52.222;20.916;2023-04-24T07:41:31;19.30;61.50
21778;DHT22;11050;52.222;20.916;2023-04-24T07:43:57;19.40;61.80
21778;DHT22;11050;52.222;20.916;2023-04-24T07:46:23;19.50;61.00
21778;DHT22;11050;52.222;20.916;2023-04-24T07:48:50;19.60;61.50
21778;DHT22;11050;52.222;20.916;2023-04-24T07:51:16;19.70;61.50
21778;DHT22;11050;52.222;20.916;2023-04-24T07:53:43;19.90;61.20
21778;DHT22;11050;52.222;20.916;2023-04-24T07:56:09;20.00;60.80
21778;DHT22;11050;52.222;20.916;2023-04-24T07:58:35;20.10;60.40
21778;DHT22;11050;52.222;20.916;2023-04-24T08:01:01;20.20;60.10
21778;DHT22;11050;52.222;20.916;2023-04-24T08:03:27;20.20;60.30
21778;DHT22;11050;52.222;20.916;2023-04-24T08:05:52;20.30;60.80
21778;DHT22;11050;52.222;20.916;2023-04-24T08:08:21;20.50;61.30
21778;DHT22;11050;52.222;20.916;2023-04-24T08:10:47;20.60;59.40
21778;DHT22;11050;52.222;20.916;2023-04-24T08:13:13;20.60;59.20
21778;DHT22;11050;52.222;20.916;2023-04-24T08:15:39;20.50;59.20
21778;DHT22;11050;52.222;20.916;2023-04-24T08:18:05;20.50;59.60
21778;DHT22;11050;52.222;20.916;2023-04-24T08:20:31;20.40;60.10
21778;DHT22;11050;52.222;20.916;2023-04-24T08:22:56;20.40;59.50
21778;DHT22;11050;52.222;20.916;2023-04-24T08:25:22;20.30;59.80
21778;DHT22;11050;52.222;20.916;2023-04-24T08:27:51;20.20;60.40
21778;DHT22;11050;52.222;20.916;2023-04-24T08:30:17;20.20;61.00
21778;DHT22;11050;52.222;20.916;2023-04-24T08:32:43;20.10;61.40
21778;DHT22;11050;52.222;20.916;2023-04-24T08:35:09;20.00;61.40
21778;DHT22;11050;52.222;20.916;2023-04-24T08:37:35;19.90;62.10
21778;DHT22;11050;52.222;20.916;2023-04-24T08:40:06;19.80;62.90
21778;DHT22;11050;52.222;20.916;2023-04-24T08:42:44;19.80;63.20
21778;DHT22;11050;52.222;20.916;2023-04-24T08:45:11;19.80;63.70
21778;DHT22;11050;52.222;20.916;2023-04-24T08:47:39;19.80;63.40
21778;DHT22;11050;52.222;20.916;2023-04-24T08:50:06;19.90;63.20
21778;DHT22;11050;52.222;20.916;2023-04-24T08:52:34;19.90;63.10
21778;DHT22;11050;52.222;20.916;2023-04-24T08:55:01;19.90;62.30
21778;DHT22;11050;52.222;20.916;2023-04-24T08:57:28;19.80;61.40
21778;DHT22;11050;52.222;20.916;2023-04-24T08:59:56;19.90;62.20
21778;DHT22;11050;52.222;20.916;2023-04-24T09:02:23;19.90;63.10
21778;DHT22;11050;52.222;20.916;2023-04-24T09:04:50;20.10;62.40
21778;DHT22;11050;52.222;20.916;2023-04-24T09:07:18;20.30;62.80
21778;DHT22;11050;52.222;20.916;2023-04-24T09:09:45;20.50;60.10
21778;DHT22;11050;52.222;20.916;2023-04-24T09:12:11;20.60;59.00
21778;DHT22;11050;52.222;20.916;2023-04-24T09:14:38;20.80;59.30
21778;DHT22;11050;52.222;20.916;2023-04-24T09:17:08;20.90;59.20
21778;DHT22;11050;52.222;20.916;2023-04-24T09:19:33;21.10;59.40
21778;DHT22;11050;52.222;20.916;2023-04-24T09:21:59;21.30;56.80
21778;DHT22;11050;52.222;20.916;2023-04-24T09:24:31;21.50;56.90
21778;DHT22;11050;52.222;20.916;2023-04-24T09:26:58;21.60;56.20
21778;DHT22;11050;52.222;20.916;2023-04-24T09:29:24;21.70;56.40
21778;DHT22;11050;52.222;20.916;2023-04-24T09:31:50;21.80;56.90
21778;DHT22;11050;52.222;20.916;2023-04-24T09:34:25;21.90;56.20
21778;DHT22;11050;52.222;20.916;2023-04-24T09:36:52;22.00;56.00
21778;DHT22;11050;52.222;20.916;2023-04-24T09:39:19;22.20;56.20
21778;DHT22;11050;52.222;20.916;2023-04-24T09:41:46;22.30;55.90
21778;DHT22;11050;52.222;20.916;2023-04-24T09:44:17;22.40;56.20
21778;DHT22;11050;52.222;20.916;2023-04-24T09:46:53;22.50;56.00
21778;DHT22;11050;52.222;20.916;2023-04-24T09:49:27;22.70;57.10
21778;DHT22;11050;52.222;20.916;2023-04-24T09:52:08;22.80;56.90
21778;DHT22;11050;52.222;20.916;2023-04-24T09:54:35;23.00;56.70
21778;DHT22;11050;52.222;20.916;2023-04-24T09:57:04;23.10;54.30
21778;DHT22;11050;52.222;20.916;2023-04-24T09:59:32;23.20;53.50
21778;DHT22;11050;52.222;20.916;2023-04-24T10:01:59;23.30;52.00
21778;DHT22;11050;52.222;20.916;2023-04-24T10:04:28;23.40;51.20
21778;DHT22;11050;52.222;20.916;2023-04-24T10:06:56;23.50;51.50
21778;DHT22;11050;52.222;20.916;2023-04-24T10:09:24;23.60;51.90
21778;DHT22;11050;52.222;20.916;2023-04-24T10:11:53;23.70;50.90
21778;DHT22;11050;52.222;20.916;2023-04-24T10:14:24;23.80;50.50
21778;DHT22;11050;52.222;20.916;2023-04-24T10:16:54;23.90;50.50
21778;DHT22;11050;52.222;20.916;2023-04-24T10:19:22;24.10;50.30
21778;DHT22;11050;52.222;20.916;2023-04-24T10:21:51;24.20;46.70
21778;DHT22;11050;52.222;20.916;2023-04-24T10:24:18;24.30;47.70
21778;DHT22;11050;52.222;20.916;2023-04-24T10:26:47;24.40;48.40
21778;DHT22;11050;52.222;20.916;2023-04-24T10:29:15;24.50;45.50
21778;DHT22;11050;52.222;20.916;2023-04-24T10:31:42;24.60;45.10
21778;DHT22;11050;52.222;20.916;2023-04-24T10:34:11;24.60;45.00
21778;DHT22;11050;52.222;20.916;2023-04-24T10:36:44;24.70;45.50
21778;DHT22;11050;52.222;20.916;2023-04-24T10:39:14;24.70;46.00
21778;DHT22;11050;52.222;20.916;2023-04-24T10:41:42;24.90;45.00
21778;DHT22;11050;52.222;20.916;2023-04-24T10:44:09;25.00;44.30
21778;DHT22;11050;52.222;20.916;2023-04-24T10:46:37;25.00;43.90
21778;DHT22;11050;52.222;20.916;2023-04-24T10:49:06;25.00;43.40
21778;DHT22;11050;52.222;20.916;2023-04-24T10:51:51;25.00;42.50
21778;DHT22;11050;52.222;20.916;2023-04-24T10:54:24;25.00;44.00
21778;DHT22;11050;52.222;20.916;2023-04-24T10:56:56;24.90;44.30
21778;DHT22;11050;52.222;20.916;2023-04-24T10:59:50;24.90;44.30
21778;DHT22;11050;52.222;20.916;2023-04-24T11:02:38;24.80;44.80
21778;DHT22;11050;52.222;20.916;2023-04-24T11:05:09;24.80;45.70
21778;DHT22;11050;52.222;20.916;2023-04-24T11:11:02;25.30;46.50
21778;DHT22;11050;52.222;20.916;2023-04-24T11:16:26;26.20;43.80
21778;DHT22;11050;52.222;20.916;2023-04-24T11:19:09;26.50;43.30
21778;DHT22;11050;52.222;20.916;2023-04-24T11:21:48;26.60;41.90
21778;DHT22;11050;52.222;20.916;2023-04-24T11:24:27;26.80;41.70
21778;DHT22;11050;52.222;20.916;2023-04-24T11:27:04;26.80;39.80
21778;DHT22;11050;52.222;20.916;2023-04-24T11:34:56;26.90;39.50
21778;DHT22;11050;52.222;20.916;2023-04-24T11:37:25;26.90;37.30
21778;DHT22;11050;52.222;20.916;2023-04-24T11:39:57;26.90;38.30
21778;DHT22;11050;52.222;20.916;2023-04-24T11:42:24;26.70;37.90
21778;DHT22;11050;52.222;20.916;2023-04-24T11:44:52;26.50;39.40
21778;DHT22;11050;52.222;20.916;2023-04-24T11:47:41;26.30;39.10
21778;DHT22;11050;52.222;20.916;2023-04-24T11:50:09;26.10;39.00
21778;DHT22;11050;52.222;20.916;2023-04-24T11:52:47;26.20;39.20
21778;DHT22;11050;52.222;20.916;2023-04-24T11:57:43;26.90;37.00
21778;DHT22;11050;52.222;20.916;2023-04-24T12:00:22;27.20;35.30
21778;DHT22;11050;52.222;20.916;2023-04-24T12:02:49;27.60;36.00
21778;DHT22;11050;52.222;20.916;2023-04-24T12:05:21;28.00;34.60
21778;DHT22;11050;52.222;20.916;2023-04-24T12:07:48;28.30;34.30
21778;DHT22;11050;52.222;20.916;2023-04-24T12:10:19;28.60;33.10
21778;DHT22;11050;52.222;20.916;2023-04-24T12:12:49;28.90;33.80
21778;DHT22;11050;52.222;20.916;2023-04-24T12:15:17;29.00;33.70
21778;DHT22;11050;52.222;20.916;2023-04-24T12:17:45;29.10;32.80
21778;DHT22;11050;52.222;20.916;2023-04-24T12:20:12;29.40;34.20
21778;DHT22;11050;52.222;20.916;2023-04-24T12:22:50;29.80;33.20
21778;DHT22;11050;52.222;20.916;2023-04-24T12:25:18;30.00;32.40
21778;DHT22;11050;52.222;20.916;2023-04-24T12:27:46;30.00;30.00
21778;DHT22;11050;52.222;20.916;2023-04-24T12:30:17;30.00;30.90
21778;DHT22;11050;52.222;20.916;2023-04-24T12:32:45;29.90;31.40
21778;DHT22;11050;52.222;20.916;2023-04-24T12:35:22;29.50;29.30
21778;DHT22;11050;52.222;20.916;2023-04-24T12:37:49;28.80;29.40
21778;DHT22;11050;52.222;20.916;2023-04-24T12:40:18;28.30;30.20
21778;DHT22;11050;52.222;20.916;2023-04-24T12:42:50;27.70;31.50
21778;DHT22;11050;52.222;20.916;2023-04-24T12:45:18;27.10;32.90
21778;DHT22;11050;52.222;20.916;2023-04-24T12:47:45;26.50;35.00
21778;DHT22;11050;52.222;20.916;2023-04-24T12:50:14;25.90;37.60
21778;DHT22;11050;52.222;20.916;2023-04-24T12:52:42;25.00;38.10
21778;DHT22;11050;52.222;20.916;2023-04-24T12:55:08;24.10;39.90
21778;DHT22;11050;52.222;20.916;2023-04-24T12:57:36;23.40;41.80
21778;DHT22;11050;52.222;20.916;2023-04-24T13:00:03;22.80;43.40
21778;DHT22;11050;52.222;20.916;2023-04-24T13:02:33;22.20;44.80
21778;DHT22;11050;52.222;20.916;2023-04-24T13:04:59;21.80;45.50
21778;DHT22;11050;52.222;20.916;2023-04-24T13:07:26;21.40;46.30
21778;DHT22;11050;52.222;20.916;2023-04-24T13:09:53;21.10;47.00
21778;DHT22;11050;52.222;20.916;2023-04-24T13:12:20;20.90;47.50
21778;DHT22;11050;52.222;20.916;2023-04-24T13:14:46;20.60;48.20
21778;DHT22;11050;52.222;20.916;2023-04-24T13:17:13;20.40;49.00
21778;DHT22;11050;52.222;20.916;2023-04-24T13:19:40;20.30;49.20
21778;DHT22;11050;52.222;20.916;2023-04-24T13:22:09;20.20;49.50
21778;DHT22;11050;52.222;20.916;2023-04-24T13:24:36;20.10;49.40
21778;DHT22;11050;52.222;20.916;2023-04-24T13:27:03;20.10;50.00
21778;DHT22;11050;52.222;20.916;2023-04-24T13:29:29;20.30;49.90
21778;DHT22;11050;52.222;20.916;2023-04-24T13:31:55;20.50;48.80
21778;DHT22;11050;52.222;20.916;2023-04-24T13:34:25;20.70;48.30
21778;DHT22;11050;52.222;20.916;2023-04-24T13:36:53;21.10;47.30
21778;DHT22;11050;52.222;20.916;2023-04-24T13:39:21;21.60;45.50
21778;DHT22;11050;52.222;20.916;2023-04-24T13:41:47;22.10;44.50
21778;DHT22;11050;52.222;20.916;2023-04-24T13:44:14;22.40;43.30
21778;DHT22;11050;52.222;20.916;2023-04-24T13:46:42;22.70;42.10
21778;DHT22;11050;52.222;20.916;2023-04-24T13:49:10;22.80;41.30
21778;DHT22;11050;52.222;20.916;2023-04-24T13:51:37;23.00;40.40
21778;DHT22;11050;52.222;20.916;2023-04-24T13:54:03;23.10;41.00
21778;DHT22;11050;52.222;20.916;2023-04-24T13:56:29;23.20;40.50
21778;DHT22;11050;52.222;20.916;2023-04-24T13:58:56;23.40;40.70
21778;DHT22;11050;52.222;20.916;2023-04-24T14:01:22;23.70;39.90
21778;DHT22;11050;52.222;20.916;2023-04-24T14:03:52;24.10;38.80
21778;DHT22;11050;52.222;20.916;2023-04-24T14:06:18;24.50;38.90
21778;DHT22;11050;52.222;20.916;2023-04-24T14:08:46;24.90;38.10
21778;DHT22;11050;52.222;20.916;2023-04-24T14:11:13;25.20;37.70
21778;DHT22;11050;52.222;20.916;2023-04-24T14:13:43;25.50;36.80
21778;DHT22;11050;52.222;20.916;2023-04-24T14:16:10;25.70;37.30
21778;DHT22;11050;52.222;20.916;2023-04-24T14:18:36;25.80;37.40
21778;DHT22;11050;52.222;20.916;2023-04-24T14:21:03;25.70;35.90
21778;DHT22;11050;52.222;20.916;2023-04-24T14:23:29;25.80;36.30
21778;DHT22;11050;52.222;20.916;2023-04-24T14:25:56;25.80;36.20
21778;DHT22;11050;52.222;20.916;2023-04-24T14:28:22;25.70;36.40
21778;DHT22;11050;52.222;20.916;2023-04-24T14:30:49;25.40;36.30
21778;DHT22;11050;52.222;20.916;2023-04-24T14:33:15;25.20;37.30
21778;DHT22;11050;52.222;20.916;2023-04-24T14:35:42;25.00;37.10
21778;DHT22;11050;52.222;20.916;2023-04-24T14:38:08;24.90;37.10
21778;DHT22;11050;52.222;20.916;2023-04-24T14:40:35;24.70;36.80
21778;DHT22;11050;52.222;20.916;2023-04-24T14:43:01;24.70;37.00
21778;DHT22;11050;52.222;20.916;2023-04-24T14:45:27;24.90;36.10
21778;DHT22;11050;52.222;20.916;2023-04-24T14:47:53;25.20;36.50
21778;DHT22;11050;52.222;20.916;2023-04-24T14:50:20;25.80;35.60
21778;DHT22;11050;52.222;20.916;2023-04-24T14:52:46;26.50;35.10
21778;DHT22;11050;52.222;20.916;2023-04-24T14:55:13;27.30;34.20
21778;DHT22;11050;52.222;20.916;2023-04-24T14:57:38;28.00;33.20
21778;DHT22;11050;52.222;20.916;2023-04-24T15:00:08;28.70;31.50
21778;DHT22;11050;52.222;20.916;2023-04-24T15:02:35;29.00;31.40
21778;DHT22;11050;52.222;20.916;2023-04-24T15:05:05;28.80;31.70
21778;DHT22;11050;52.222;20.916;2023-04-24T15:07:32;28.80;29.80
21778;DHT22;11050;52.222;20.916;2023-04-24T15:09:58;28.70;29.20
21778;DHT22;11050;52.222;20.916;2023-04-24T15:12:24;28.50;28.90
21778;DHT22;11050;52.222;20.916;2023-04-24T15:14:50;28.30;29.10
21778;DHT22;11050;52.222;20.916;2023-04-24T15:17:16;28.20;29.30
21778;DHT22;11050;52.222;20.916;2023-04-24T15:19:42;28.20;29.40
21778;DHT22;11050;52.222;20.916;2023-04-24T15:22:07;27.90;29.40
21778;DHT22;11050;52.222;20.916;2023-04-24T15:24:33;27.70;29.30
21778;DHT22;11050;52.222;20.916;2023-04-24T15:26:59;27.40;29.00
21778;DHT22;11050;52.222;20.916;2023-04-24T15:29:27;27.10;29.40